Aérodrome :
LOGIN :

S'inscrire | Disclaimer

   EN    FR    IT 

 










Légende :    VFR   VFR Marginal   IFR   IFR Intensif   IFR Très Intensif
Visi : 
Plafond : 
>= 8 km
>= 3000ft
5 à 8 km
1000 à 3000 ft
1500m à 5 km
500 à 1000 ft
800 à 1500m
200 à 500 ft
< 800m
< 200 ft
Symboles :   Orages  Brouillard  Fortes neiges  Fortes précipitations  Vent > 20 kt
SIGMETs :   Divers  Orages  Givrage  Turbulence  Onde Orograph.  Cendres Volcan.







- Altitude de l'aérodrome : 989 ft
- Code IATA : TRN


LIMF - Torino Caselle

DERNIER METAR :
  • 261150Z 07007KT 360V110 CAVOK 27/08 Q1006

METARs EXPIRÉS :
  • 261120Z 07007KT 030V100 CAVOK 27/07 Q1006
  • 261050Z 07007KT 040V100 CAVOK 26/08 Q1006
  • 261020Z 07007KT 040V100 CAVOK 26/09 Q1006
  • 260950Z 09005KT 050V120 CAVOK 25/08 Q1007
  • 260920Z 08006KT 050V120 CAVOK 25/10 Q1007

TAF TAF LIMF
Valide du 26 à 12h jusqu'au 27 à 12h UTC


261100Z 2612/2712 05007KT CAVOK
Pas de NOTAMs connus pour ce terrain.



MET'MAP, la Météo Aéronautique d'un coup d'oeil ! - Copyright ORBIFLY Décembre 2007 - Disclaimer

ORBIFLY MET'MAP TEAM :

Programmation & Développement : Alexandra Zaïnal
Conception & Développement : Baudouin d'Aumeries
Co-Programmation & Développement : Marc-Olivier Méhu
Soutien technique & logistique : Manuel Goepfert

Contact : metmap@orbifly.com




SOURCES & CREDITS :

   NOAA